createdAt,value
2022-09-12T00:03:15.211Z,125.20
2022-09-12T00:28:20.071Z,124.97
2022-09-12T00:53:24.259Z,122.07
2022-09-12T01:18:31.329Z,121.38
2022-09-12T01:43:37.955Z,119.90
2022-09-12T02:08:44.912Z,119.40
2022-09-12T02:33:55.865Z,119.72
2022-09-12T02:59:02.766Z,119.60
2022-09-12T03:24:12.242Z,121.35
2022-09-12T03:49:17.576Z,119.53
2022-09-12T04:14:21.604Z,125.38
2022-09-12T04:39:25.714Z,120.57
2022-09-12T05:04:30.032Z,132.90
2022-09-12T05:29:34.165Z,124.57
2022-09-12T05:54:38.659Z,129.70
2022-09-12T06:19:43.764Z,148.32
2022-09-12T06:44:48.654Z,148.20
2022-09-12T07:09:53.116Z,141.70
2022-09-12T07:34:57.607Z,133.23
2022-09-12T08:00:04.028Z,134.68
2022-09-12T08:25:16.306Z,134.02
2022-09-12T08:50:21.696Z,132.65
2022-09-12T09:15:34.954Z,137.50
2022-09-12T09:40:46.992Z,131.55
2022-09-12T10:05:52.513Z,127.18
2022-09-12T10:30:57.720Z,126.65
2022-09-12T10:56:12.319Z,130.70
2022-09-12T11:21:20.912Z,132.40
2022-09-12T11:46:28.869Z,131.02
2022-09-12T12:11:34.629Z,126.57
2022-09-12T12:36:41.967Z,131.18
2022-09-12T13:01:54.978Z,131.05
2022-09-12T13:26:59.489Z,140.40
2022-09-12T13:52:04.851Z,128.90
2022-09-12T14:17:20.739Z,140.95
2022-09-12T14:42:28.560Z,143.18
2022-09-12T15:07:35.066Z,131.02
2022-09-12T15:32:39.164Z,128.68
2022-09-12T15:57:43.245Z,134.45
2022-09-12T16:22:47.882Z,133.02
2022-09-12T16:47:52.002Z,134.77
2022-09-12T17:12:56.642Z,128.10
2022-09-12T17:38:01.282Z,132.35
2022-09-12T18:03:05.571Z,126.05
2022-09-12T18:28:09.563Z,128.63
2022-09-12T18:53:14.934Z,125.05
2022-09-12T19:18:18.985Z,129.18
2022-09-12T19:43:22.980Z,139.30
2022-09-12T20:08:27.714Z,128.93
2022-09-12T21:00:13.323Z,121.30
2022-09-12T21:25:18.358Z,122.32
2022-09-12T21:50:22.445Z,122.40
2022-09-12T22:15:41.804Z,123.60
2022-09-12T22:40:46.382Z,121.88
2022-09-12T23:05:50.461Z,119.55
2022-09-12T23:30:56.636Z,121.55
2022-09-12T23:56:01.069Z,120.93
